Time;durP1;ratioP1;P1;durP2;ratioP2;P2;SDS_P1;SDS_P2;PMS_P1;PMS_P2;Temp;Humidity;BMP_temperature;BMP_pressure;BME280_temperature;BME280_humidity;BME280_pressure;Samples;Min_cycle;Max_cycle;Signal;HPM_P1;HPM_P2
2022/01/10 00:00:49;;;;;;;0.40;0.30;;;;;;;4.88;100.00;100209.75;5097228;28;20488;-77
2022/01/10 00:03:16;;;;;;;0.40;0.30;;;;;;;4.89;100.00;100214.84;5096549;28;20496;-78
2022/01/10 00:05:43;;;;;;;0.40;0.20;;;;;;;4.91;100.00;100219.91;5096877;28;20444;-78
2022/01/10 00:08:11;;;;;;;0.40;0.23;;;;;;;4.94;100.00;100225.56;5096766;28;20514;-78
2022/01/10 00:10:38;;;;;;;0.40;0.20;;;;;;;4.94;100.00;100232.81;5096293;28;20452;-75
2022/01/10 00:13:05;;;;;;;0.70;0.70;;;;;;;4.97;100.00;100232.28;5095567;28;20506;-75
2022/01/10 00:15:31;;;;;;;0.40;0.20;;;;;;;5.01;100.00;100233.34;5095591;28;20452;-75
2022/01/10 00:17:58;;;;;;;0.40;0.30;;;;;;;5.01;100.00;100239.50;5095541;28;20445;-76
2022/01/10 00:20:24;;;;;;;0.83;0.30;;;;;;;5.02;100.00;100246.47;5095424;28;20480;-76
2022/01/10 00:22:51;;;;;;;0.40;0.20;;;;;;;5.03;100.00;100258.81;5095387;28;20468;-76
2022/01/10 00:25:20;;;;;;;0.40;0.30;;;;;;;5.03;100.00;100260.69;5095563;28;20444;-76
2022/01/10 00:27:48;;;;;;;0.40;0.30;;;;;;;4.95;100.00;100271.97;5095334;28;20451;-75
2022/01/10 00:30:15;;;;;;;0.40;0.20;;;;;;;4.92;100.00;100270.66;5095289;28;20429;-76
2022/01/10 00:32:43;;;;;;;0.40;0.30;;;;;;;4.90;100.00;100274.66;5095430;28;20448;-76
2022/01/10 00:35:11;;;;;;;0.40;0.27;;;;;;;4.91;100.00;100281.63;5095150;28;20463;-75
2022/01/10 00:37:39;;;;;;;0.40;0.30;;;;;;;4.87;100.00;100280.56;5095144;28;20443;-75
2022/01/10 00:40:07;;;;;;;0.40;0.30;;;;;;;4.89;100.00;100286.47;5095079;28;20480;-76
2022/01/10 00:42:33;;;;;;;0.40;0.30;;;;;;;4.89;100.00;100281.91;5093920;28;20460;-75
2022/01/10 00:45:07;;;;;;;0.40;0.30;;;;;;;4.92;100.00;100302.06;5094998;28;20449;-75
2022/01/10 00:47:33;;;;;;;0.40;0.30;;;;;;;4.92;100.00;100294.00;5095011;28;20478;-75
2022/01/10 00:50:00;;;;;;;0.40;0.30;;;;;;;4.92;100.00;100304.75;5094929;28;20513;-76
2022/01/10 00:52:26;;;;;;;0.40;0.20;;;;;;;4.92;100.00;100304.75;5094766;28;20494;-75
2022/01/10 00:54:53;;;;;;;0.40;0.20;;;;;;;4.95;100.00;100314.91;5094841;28;20440;-75
2022/01/10 00:57:19;;;;;;;0.40;0.20;;;;;;;4.94;100.00;100314.13;5094989;28;20525;-75
2022/01/10 00:59:45;;;;;;;0.40;0.20;;;;;;;4.95;100.00;100310.34;5094575;28;20480;-75
2022/01/10 01:02:13;;;;;;;0.40;0.20;;;;;;;4.92;100.00;100318.16;5094202;28;20989;-75
2022/01/10 01:04:40;;;;;;;0.40;0.20;;;;;;;4.94;100.00;100324.84;5094718;28;20870;-77
2022/01/10 01:07:06;;;;;;;0.40;0.20;;;;;;;4.99;100.00;100332.88;5094963;28;20538;-71
2022/01/10 01:09:33;;;;;;;0.40;0.30;;;;;;;5.04;100.00;100334.75;5094528;28;20444;-72
2022/01/10 01:14:56;;;;;;;0.40;0.30;;;;;;;5.15;100.00;100340.94;5090827;28;20440;-76
2022/01/10 01:17:45;;;;;;;0.40;0.20;;;;;;;5.18;100.00;100353.81;5096082;28;20909;-78
2022/01/10 01:20:31;;;;;;;0.40;0.30;;;;;;;5.20;100.00;100360.53;5098371;28;20465;-79
2022/01/10 01:25:44;;;;;;;0.40;0.30;;;;;;;5.26;100.00;100372.06;5082552;28;20447;-79
2022/01/10 01:28:10;;;;;;;0.40;0.20;;;;;;;5.26;100.00;100375.53;5097579;28;20445;-79
2022/01/10 01:30:36;;;;;;;0.40;0.30;;;;;;;5.30;100.00;100373.13;5098143;28;20448;-79
2022/01/10 01:33:04;;;;;;;0.40;0.30;;;;;;;5.27;100.00;100384.44;5097386;28;20465;-79
2022/01/10 01:35:33;;;;;;;0.40;0.30;;;;;;;5.29;100.00;100388.44;5098410;28;20449;-79
2022/01/10 01:37:59;;;;;;;0.40;0.30;;;;;;;5.31;100.00;100393.53;5098803;28;20440;-79
2022/01/10 01:40:29;;;;;;;0.40;0.30;;;;;;;5.30;100.00;100397.28;5098438;28;20480;-79
2022/01/10 01:42:56;;;;;;;0.40;0.30;;;;;;;5.28;100.00;100402.94;5097503;28;20518;-79
2022/01/10 01:45:37;;;;;;;0.40;0.30;;;;;;;5.29;100.00;100407.22;5097053;28;20497;-79
2022/01/10 01:48:05;;;;;;;0.40;0.30;;;;;;;5.32;100.00;100422.00;5098460;28;20432;-79
2022/01/10 01:50:33;;;;;;;0.40;0.20;;;;;;;5.32;100.00;100422.81;5098367;28;20433;-79
2022/01/10 01:53:00;;;;;;;0.40;0.30;;;;;;;5.32;100.00;100427.38;5097864;28;21008;-79
2022/01/10 01:55:26;;;;;;;0.40;0.30;;;;;;;5.30;100.00;100429.50;5097916;28;20823;-79
2022/01/10 01:57:53;;;;;;;0.50;0.40;;;;;;;5.29;100.00;100428.72;5098327;28;20941;-79
2022/01/10 02:00:22;;;;;;;0.40;0.30;;;;;;;5.34;100.00;100435.97;5098153;28;20483;-79
2022/01/10 02:02:49;;;;;;;0.40;0.30;;;;;;;5.35;100.00;100445.63;5098188;28;20490;-79
2022/01/10 02:05:17;;;;;;;0.40;0.20;;;;;;;5.38;100.00;100452.34;5097274;28;20444;-79
2022/01/10 02:07:43;;;;;;;0.40;0.27;;;;;;;5.39;100.00;100460.13;5097097;28;20468;-79
2022/01/10 02:10:10;;;;;;;0.40;0.27;;;;;;;5.41;100.00;100460.69;5098476;28;20440;-79
2022/01/10 02:12:37;;;;;;;0.40;0.20;;;;;;;5.42;100.00;100470.34;5098186;28;20471;-79
2022/01/10 02:15:04;;;;;;;0.40;0.20;;;;;;;5.42;100.00;100474.91;5097938;28;20444;-79
2022/01/10 02:17:36;;;;;;;0.40;0.30;;;;;;;5.42;100.00;100482.97;5098141;28;20834;-79
2022/01/10 02:20:05;;;;;;;0.40;0.30;;;;;;;5.39;100.00;100478.94;5097437;28;20555;-79
2022/01/10 02:22:32;;;;;;;0.40;0.23;;;;;;;5.43;100.00;100485.38;5097618;28;20460;-79
2022/01/10 02:24:58;;;;;;;0.40;0.30;;;;;;;5.44;100.00;100488.84;5097871;28;21002;-79
2022/01/10 02:27:26;;;;;;;0.40;0.27;;;;;;;5.46;100.00;100492.09;5097256;28;20448;-79
2022/01/10 02:29:52;;;;;;;0.40;0.30;;;;;;;5.49;100.00;100496.91;5097114;28;20818;-79
2022/01/10 02:32:20;;;;;;;0.40;0.30;;;;;;;5.48;100.00;100504.16;5093947;28;20472;-77
2022/01/10 02:34:47;;;;;;;0.40;0.20;;;;;;;5.50;100.00;100511.97;5093328;28;20447;-77
2022/01/10 02:37:30;;;;;;;0.40;0.20;;;;;;;5.52;100.00;100513.31;5093245;28;20448;-77
2022/01/10 02:39:58;;;;;;;0.40;0.30;;;;;;;5.50;100.00;100507.41;5093492;28;20421;-77
2022/01/10 02:42:25;;;;;;;0.40;0.20;;;;;;;5.51;100.00;100521.66;5093178;28;20464;-77
2022/01/10 02:44:51;;;;;;;0.40;0.30;;;;;;;5.49;100.00;100523.78;5092885;28;20437;-77
2022/01/10 02:47:18;;;;;;;0.40;0.23;;;;;;;5.47;100.00;100525.94;5093228;28;20447;-77
2022/01/10 02:49:44;;;;;;;0.40;0.30;;;;;;;5.45;100.00;100536.16;5093177;28;20440;-77
2022/01/10 02:52:10;;;;;;;0.40;0.20;;;;;;;5.42;100.00;100529.44;5093079;28;20543;-76
2022/01/10 02:54:38;;;;;;;0.40;0.20;;;;;;;5.40;100.00;100539.66;5093129;28;20452;-76
2022/01/10 02:57:05;;;;;;;0.40;0.30;;;;;;;5.40;100.00;100552.25;5093257;28;20517;-76
2022/01/10 02:59:31;;;;;;;0.40;0.30;;;;;;;5.39;100.00;100547.94;5093092;28;20444;-77
2022/01/10 03:01:58;;;;;;;0.40;0.30;;;;;;;5.39;100.00;100554.13;5092771;28;20491;-77
2022/01/10 03:04:24;;;;;;;0.40;0.23;;;;;;;5.42;100.00;100566.22;5092706;28;20920;-77
2022/01/10 03:06:51;;;;;;;0.40;0.27;;;;;;;5.43;100.00;100571.31;5095250;28;20440;-77
2022/01/10 03:09:17;;;;;;;0.40;0.20;;;;;;;5.44;100.00;100564.88;5096877;28;20452;-76
2022/01/10 03:11:45;;;;;;;0.40;0.20;;;;;;;5.45;100.00;100581.81;5096792;28;20463;-77
2022/01/10 03:14:13;;;;;;;0.40;0.30;;;;;;;5.45;100.00;100576.44;5096782;28;20803;-77
2022/01/10 03:16:40;;;;;;;0.40;0.20;;;;;;;5.44;100.00;100581.00;5097020;28;20850;-77
2022/01/10 03:19:06;;;;;;;0.40;0.30;;;;;;;5.46;100.00;100594.97;5096754;28;20451;-76
2022/01/10 03:21:34;;;;;;;0.40;0.20;;;;;;;5.45;100.00;100598.75;5096549;28;20476;-77
2022/01/10 03:24:00;;;;;;;0.40;0.30;;;;;;;5.46;100.00;100600.34;5096569;28;20500;-77
2022/01/10 03:26:27;;;;;;;0.60;0.50;;;;;;;5.45;100.00;100604.13;5096254;28;20480;-76
2022/01/10 03:28:55;;;;;;;0.40;0.27;;;;;;;5.44;100.00;100607.84;5096785;28;20440;-76
2022/01/10 03:31:21;;;;;;;0.40;0.20;;;;;;;5.42;100.00;100609.22;5096115;28;20444;-77
2022/01/10 03:33:48;;;;;;;0.40;0.20;;;;;;;5.41;100.00;100608.41;5096663;28;20459;-76
2022/01/10 03:36:14;;;;;;;0.40;0.30;;;;;;;5.42;100.00;100609.22;5096328;28;20448;-76
2022/01/10 03:38:41;;;;;;;0.40;0.23;;;;;;;5.35;100.00;100614.81;5096319;28;20454;-77
2022/01/10 03:41:09;;;;;;;0.77;0.77;;;;;;;5.34;100.00;100617.78;5096122;28;20480;-76
2022/01/10 03:43:35;;;;;;;0.40;0.30;;;;;;;5.39;100.00;100625.84;5096305;28;20464;-76
2022/01/10 03:46:03;;;;;;;0.40;0.20;;;;;;;5.40;100.00;100628.28;5096137;28;20952;-77
2022/01/10 03:48:29;;;;;;;0.40;0.30;;;;;;;5.43;100.00;100637.66;5096159;28;20440;-77
2022/01/10 03:50:57;;;;;;;0.40;0.20;;;;;;;5.43;100.00;100637.66;5096068;28;20490;-76
2022/01/10 03:53:23;;;;;;;0.40;0.30;;;;;;;5.41;100.00;100640.63;5096220;28;20465;-78
2022/01/10 03:55:50;;;;;;;0.40;0.30;;;;;;;5.43;100.00;100653.78;5096371;28;20539;-77
2022/01/10 03:58:16;;;;;;;0.50;0.30;;;;;;;5.44;100.00;100655.41;5095694;28;20960;-77
2022/01/10 04:00:43;;;;;;;0.40;0.30;;;;;;;5.45;100.00;100659.72;5096043;28;20487;-77
2022/01/10 04:03:11;;;;;;;1.20;1.13;;;;;;;5.44;100.00;100655.41;5095725;28;20491;-77
2022/01/10 04:05:37;;;;;;;0.40;0.20;;;;;;;5.43;100.00;100669.91;5095729;28;20941;-77
2022/01/10 04:08:04;;;;;;;0.40;0.30;;;;;;;5.42;100.00;100673.66;5096264;28;21051;-77
2022/01/10 04:10:31;;;;;;;0.40;0.30;;;;;;;5.40;100.00;100681.16;5095718;28;20463;-77
2022/01/10 04:12:57;;;;;;;0.40;0.30;;;;;;;5.40;100.00;100682.00;5095667;28;20464;-77
2022/01/10 04:15:24;;;;;;;1.07;0.97;;;;;;;5.43;100.00;100678.75;5095621;28;20443;-77
2022/01/10 04:17:55;;;;;;;0.40;0.27;;;;;;;5.42;100.00;100681.72;5096158;28;20464;-77
2022/01/10 04:20:23;;;;;;;0.40;0.30;;;;;;;5.42;100.00;100693.28;5096220;28;20429;-77
2022/01/10 04:22:49;;;;;;;0.40;0.20;;;;;;;5.43;100.00;100696.75;5095939;28;20468;-77
2022/01/10 04:25:16;;;;;;;0.40;0.27;;;;;;;5.41;100.00;100701.59;5095969;28;20443;-77
2022/01/10 04:27:42;;;;;;;0.40;0.27;;;;;;;5.42;100.00;100708.59;5095737;28;20937;-77
2022/01/10 04:30:10;;;;;;;0.40;0.20;;;;;;;5.45;100.00;100710.75;5095831;28;20498;-77
2022/01/10 04:32:36;;;;;;;0.40;0.30;;;;;;;5.44;100.00;100714.50;5095173;28;21005;-77
2022/01/10 04:35:04;;;;;;;0.40;0.20;;;;;;;5.45;100.00;100716.13;5095380;28;20452;-77
2022/01/10 04:37:31;;;;;;;0.40;0.30;;;;;;;5.42;100.00;100716.66;5095039;28;20964;-77
2022/01/10 04:39:58;;;;;;;0.40;0.30;;;;;;;5.41;100.00;100725.78;5095404;28;20444;-77
2022/01/10 04:42:24;;;;;;;0.40;0.30;;;;;;;5.36;100.00;100734.63;5094993;28;20484;-77
2022/01/10 04:44:51;;;;;;;0.40;0.30;;;;;;;5.34;100.00;100730.56;5095082;28;20437;-77
2022/01/10 04:47:17;;;;;;;0.40;0.20;;;;;;;5.34;100.00;100739.44;5095013;28;20849;-77
2022/01/10 04:50:04;;;;;;;1.13;1.13;;;;;;;5.32;100.00;100742.41;5095061;28;20451;-77
2022/01/10 04:52:33;;;;;;;0.40;0.20;;;;;;;5.32;100.00;100749.66;5094910;28;20460;-77
2022/01/10 04:55:01;;;;;;;0.40;0.20;;;;;;;5.35;100.00;100754.47;5094924;28;20849;-77
2022/01/10 04:57:28;;;;;;;0.40;0.30;;;;;;;5.35;100.00;100754.47;5094849;28;20436;-77
2022/01/10 04:59:54;;;;;;;0.40;0.30;;;;;;;5.35;100.00;100767.09;5094512;28;20818;-77
2022/01/10 05:02:21;;;;;;;0.40;0.30;;;;;;;5.37;100.00;100776.53;5094302;28;20881;-76
2022/01/10 05:04:47;;;;;;;0.40;0.30;;;;;;;5.36;100.00;100776.75;5094743;28;20448;-77
2022/01/10 05:07:14;;;;;;;0.40;0.20;;;;;;;5.35;100.00;100780.53;5094552;28;20497;-77
2022/01/10 05:09:42;;;;;;;0.40;0.20;;;;;;;5.34;100.00;100784.28;5094765;28;20814;-78
2022/01/10 05:12:08;;;;;;;0.40;0.30;;;;;;;5.32;100.00;100793.41;5095570;28;21000;-78
2022/01/10 05:14:35;;;;;;;0.40;0.30;;;;;;;5.29;100.00;100796.63;5096505;28;20459;-77
2022/01/10 05:17:01;;;;;;;0.40;0.30;;;;;;;5.30;100.00;100803.59;5095497;28;20819;-78
2022/01/10 05:19:28;;;;;;;0.50;0.43;;;;;;;5.30;100.00;100800.09;5095408;28;20436;-77
2022/01/10 05:21:54;;;;;;;0.40;0.30;;;;;;;5.30;100.00;100806.28;5094701;28;20484;-77
2022/01/10 05:24:20;;;;;;;0.40;0.30;;;;;;;5.24;100.00;100807.34;5095059;28;20437;-77
2022/01/10 05:26:49;;;;;;;0.40;0.30;;;;;;;5.28;100.00;100810.31;5095126;28;20459;-77
2022/01/10 05:29:16;;;;;;;0.40;0.30;;;;;;;5.24;100.00;100811.91;5094864;28;20444;-77
2022/01/10 05:31:43;;;;;;;0.40;0.20;;;;;;;5.29;100.00;100822.66;5094832;28;20443;-77
2022/01/10 05:34:09;;;;;;;0.40;0.30;;;;;;;5.28;100.00;100823.75;5093968;28;20969;-76
2022/01/10 05:36:35;;;;;;;0.40;0.20;;;;;;;5.30;100.00;100832.34;5094119;28;20453;-76
2022/01/10 05:39:02;;;;;;;0.40;0.30;;;;;;;5.26;100.00;100837.41;5094378;28;20460;-78
2022/01/10 05:41:28;;;;;;;0.40;0.30;;;;;;;5.25;100.00;100851.91;5093588;28;20476;-77
2022/01/10 05:43:56;;;;;;;0.40;0.30;;;;;;;5.28;100.00;100854.09;5093844;28;20460;-77
2022/01/10 05:46:23;;;;;;;0.40;0.30;;;;;;;5.31;100.00;100858.97;5093991;28;20452;-77
2022/01/10 05:48:52;;;;;;;0.40;0.20;;;;;;;5.32;100.00;100857.88;5093882;28;20444;-77
2022/01/10 05:51:20;;;;;;;0.40;0.30;;;;;;;5.35;100.00;100863.78;5093910;28;20436;-76
2022/01/10 05:53:47;;;;;;;0.40;0.20;;;;;;;5.35;100.00;100874.53;5093700;28;20507;-76
2022/01/10 05:56:13;;;;;;;0.40;0.30;;;;;;;5.35;100.00;100880.72;5093752;28;20441;-77
2022/01/10 05:58:40;;;;;;;0.40;0.20;;;;;;;5.35;100.00;100879.91;5093624;28;20533;-76
2022/01/10 06:01:07;;;;;;;0.40;0.20;;;;;;;5.35;100.00;100879.91;5093841;28;20495;-76
2022/01/10 06:03:34;;;;;;;0.40;0.30;;;;;;;5.32;100.00;100884.75;5093733;28;20486;-78
2022/01/10 06:06:00;;;;;;;0.40;0.23;;;;;;;5.34;100.00;100880.97;5093298;28;20987;-76
2022/01/10 06:08:28;;;;;;;0.40;0.23;;;;;;;5.32;100.00;100892.00;5093317;28;20941;-76
2022/01/10 06:10:54;;;;;;;0.40;0.30;;;;;;;5.33;100.00;100898.97;5093784;28;20448;-76
2022/01/10 06:13:21;;;;;;;0.40;0.30;;;;;;;5.31;100.00;100903.78;5093758;28;20460;-75
2022/01/10 06:15:47;;;;;;;0.40;0.30;;;;;;;5.34;100.00;100918.59;5093543;28;20449;-73
2022/01/10 06:18:15;;;;;;;0.40;0.30;;;;;;;5.36;100.00;100928.00;5093446;28;20449;-73
2022/01/10 06:20:41;;;;;;;0.40;0.30;;;;;;;5.41;100.00;100921.88;5093499;28;20439;-77
2022/01/10 06:23:09;;;;;;;0.40;0.30;;;;;;;5.40;100.00;100931.81;5093429;28;20511;-77
2022/01/10 06:25:36;;;;;;;0.40;0.30;;;;;;;5.42;100.00;100931.53;5093783;28;20454;-77
2022/01/10 06:28:03;;;;;;;0.40;0.20;;;;;;;5.39;100.00;100940.09;5093380;28;20442;-77
2022/01/10 06:30:29;;;;;;;0.40;0.30;;;;;;;5.39;100.00;100943.59;5093294;28;20447;-77
2022/01/10 06:32:55;;;;;;;0.40;0.30;;;;;;;5.38;100.00;100950.03;5093311;28;20464;-77
2022/01/10 06:35:24;;;;;;;0.40;0.30;;;;;;;5.40;100.00;100961.34;5093235;28;20467;-77
2022/01/10 06:37:51;;;;;;;0.40;0.30;;;;;;;5.43;100.00;100965.38;5092841;28;20966;-76
2022/01/10 06:40:19;;;;;;;0.40;0.20;;;;;;;5.47;100.00;100966.50;5093184;28;20436;-76
2022/01/10 06:42:45;;;;;;;0.40;0.30;;;;;;;5.44;100.00;100977.75;5097060;28;20484;-77
2022/01/10 06:45:13;;;;;;;0.40;0.30;;;;;;;5.42;100.00;100975.31;5097359;28;20448;-77
2022/01/10 06:47:40;;;;;;;0.40;0.20;;;;;;;5.40;100.00;100990.06;5097113;28;20941;-77
2022/01/10 06:50:08;;;;;;;0.40;0.30;;;;;;;5.45;100.00;100995.50;5097209;28;20452;-77
2022/01/10 06:52:36;;;;;;;0.40;0.30;;;;;;;5.47;100.00;101002.22;5097121;28;20888;-77
2022/01/10 06:55:03;;;;;;;0.40;0.30;;;;;;;5.48;100.00;101014.56;5097173;28;20440;-77
2022/01/10 06:57:29;;;;;;;0.40;0.20;;;;;;;5.50;100.00;101019.72;5097185;28;20941;-76
2022/01/10 06:59:56;;;;;;;0.40;0.20;;;;;;;5.49;100.00;101018.91;5097063;28;20480;-73
2022/01/10 07:02:22;;;;;;;0.40;0.30;;;;;;;5.50;100.00;101030.47;5096848;28;20533;-77
2022/01/10 07:04:49;;;;;;;0.40;0.30;;;;;;;5.43;100.00;101030.66;5097150;28;20982;-77
2022/01/10 07:07:15;;;;;;;0.40;0.20;;;;;;;5.46;100.00;101034.72;5097197;28;20463;-76
2022/01/10 07:09:43;;;;;;;0.40;0.20;;;;;;;5.47;100.00;101041.72;5096998;28;20447;-73
2022/01/10 07:12:10;;;;;;;0.40;0.30;;;;;;;5.45;100.00;101050.03;5097012;28;20463;-77
2022/01/10 07:14:36;;;;;;;0.40;0.30;;;;;;;5.45;100.00;101054.59;5097399;28;20956;-73
2022/01/10 07:17:03;;;;;;;0.40;0.20;;;;;;;5.44;100.00;101064.50;5096415;28;20436;-75
2022/01/10 07:19:29;;;;;;;0.40;0.30;;;;;;;5.45;100.00;101070.72;5098189;28;20448;-75
2022/01/10 07:21:56;;;;;;;0.40;0.30;;;;;;;5.46;100.00;101073.13;5096360;28;20483;-77
2022/01/10 07:24:23;;;;;;;0.40;0.30;;;;;;;5.45;100.00;101078.78;5096561;28;20448;-76
2022/01/10 07:26:50;;;;;;;0.40;0.30;;;;;;;5.45;100.00;101084.97;5096240;28;20428;-76
2022/01/10 07:29:17;;;;;;;0.40;0.30;;;;;;;5.46;100.00;101093.81;5096488;28;20449;-76
2022/01/10 07:31:44;;;;;;;0.40;0.30;;;;;;;5.50;100.00;101101.13;5096597;28;20436;-76
2022/01/10 07:34:14;;;;;;;0.40;0.30;;;;;;;5.49;100.00;101104.88;5096470;28;20851;-76
2022/01/10 07:36:40;;;;;;;0.40;0.20;;;;;;;5.49;100.00;101112.09;5096450;28;20531;-74
2022/01/10 07:39:07;;;;;;;0.40;0.20;;;;;;;5.49;100.00;101125.53;5096349;28;20440;-75
2022/01/10 07:41:34;;;;;;;0.40;0.30;;;;;;;5.47;100.00;101130.38;5096143;28;21019;-75
2022/01/10 07:44:02;;;;;;;0.40;0.20;;;;;;;5.44;100.00;101123.63;5096206;28;20472;-75
2022/01/10 07:46:28;;;;;;;0.40;0.30;;;;;;;5.46;100.00;101136.81;5096187;28;20444;-75
2022/01/10 07:48:55;;;;;;;9.43;8.83;;;;;;;5.50;100.00;101138.75;5096203;28;20464;-75
2022/01/10 07:51:22;;;;;;;0.40;0.20;;;;;;;5.56;100.00;101147.66;5095677;28;20432;-75
2022/01/10 07:53:48;;;;;;;0.40;0.20;;;;;;;5.56;100.00;101155.72;5095882;28;20471;-75
2022/01/10 07:56:15;;;;;;;0.40;0.30;;;;;;;5.59;100.00;101160.59;5096000;28;20840;-74
2022/01/10 07:58:42;;;;;;;0.40;0.20;;;;;;;5.60;100.00;101164.88;5095937;28;20440;-74
2022/01/10 08:01:09;;;;;;;0.40;0.20;;;;;;;5.55;100.00;101168.34;5095937;28;20444;-74
2022/01/10 08:03:36;;;;;;;0.40;0.30;;;;;;;5.59;100.00;101176.72;5095302;28;20496;-74
2022/01/10 08:06:03;;;;;;;0.40;0.20;;;;;;;5.61;100.00;101185.31;5095802;28;20440;-75
2022/01/10 08:08:29;;;;;;;0.50;0.30;;;;;;;5.62;100.00;101188.81;5095781;28;20447;-73
2022/01/10 08:10:56;;;;;;;0.40;0.20;;;;;;;5.64;100.00;101198.25;5096050;28;20444;-74
2022/01/10 08:13:23;;;;;;;0.40;0.20;;;;;;;5.65;100.00;101199.88;5095561;28;20460;-74
2022/01/10 08:15:50;;;;;;;2.30;2.20;;;;;;;5.59;100.00;101202.78;5095679;28;20891;-76
2022/01/10 08:18:18;;;;;;;0.40;0.30;;;;;;;5.60;100.00;101215.94;5095528;28;20444;-73
2022/01/10 08:20:45;;;;;;;0.40;0.20;;;;;;;5.63;100.00;101218.13;5095696;28;20448;-74
2022/01/10 08:23:11;;;;;;;0.40;0.20;;;;;;;5.64;100.00;101224.31;5095119;28;21001;-75
2022/01/10 08:25:38;;;;;;;0.40;0.30;;;;;;;5.63;100.00;101228.88;5094758;28;20464;-74
2022/01/10 08:28:04;;;;;;;0.40;0.30;;;;;;;5.65;100.00;101229.44;5095118;28;20933;-72
2022/01/10 08:30:31;;;;;;;0.40;0.30;;;;;;;5.70;100.00;101234.88;5095353;28;20448;-71
2022/01/10 08:32:58;;;;;;;0.40;0.20;;;;;;;5.71;100.00;101236.50;5095529;28;20457;-77
2022/01/10 08:35:26;;;;;;;0.50;0.43;;;;;;;5.68;100.00;101242.38;5095327;28;20443;-76
2022/01/10 08:37:52;;;;;;;0.40;0.30;;;;;;;5.72;100.00;101248.88;5095331;28;20592;-77
2022/01/10 08:40:19;;;;;;;0.40;0.30;;;;;;;5.74;100.00;101245.94;5095130;28;20467;-76
2022/01/10 08:42:45;;;;;;;0.40;0.30;;;;;;;5.76;100.00;101255.38;5094603;28;21032;-76
2022/01/10 08:45:12;;;;;;;0.40;0.20;;;;;;;5.80;100.00;101261.88;5095332;28;20444;-77
2022/01/10 08:47:40;;;;;;;0.40;0.20;;;;;;;5.81;100.00;101268.06;5095468;28;20447;-77
2022/01/10 08:50:09;;;;;;;0.40;0.30;;;;;;;5.84;100.00;101272.91;5095245;28;20792;-78
2022/01/10 08:52:39;;;;;;;0.40;0.30;;;;;;;5.85;100.00;101279.94;5095668;28;20452;-76
2022/01/10 08:55:06;;;;;;;0.40;0.20;;;;;;;5.86;100.00;101286.94;5094586;28;21032;-75
2022/01/10 08:57:33;;;;;;;0.40;0.20;;;;;;;5.87;100.00;101293.91;5094823;28;20485;-76
2022/01/10 08:59:59;;;;;;;0.40;0.27;;;;;;;5.88;100.00;101294.72;5094792;28;20456;-75
2022/01/10 09:02:25;;;;;;;0.40;0.20;;;;;;;5.85;100.00;101306.81;5094436;28;20488;-75
2022/01/10 09:04:53;;;;;;;0.40;0.30;;;;;;;5.89;100.00;101302.56;5094092;28;20451;-75
2022/01/10 09:07:19;;;;;;;0.40;0.30;;;;;;;5.92;100.00;101312.00;5094812;28;20452;-75
2022/01/10 09:09:47;;;;;;;0.40;0.30;;;;;;;5.91;100.00;101316.56;5094219;28;20933;-75
2022/01/10 09:12:14;;;;;;;0.40;0.27;;;;;;;5.89;100.00;101326.75;5094516;28;20449;-75
2022/01/10 09:14:40;;;;;;;1.83;1.73;;;;;;;5.89;100.00;101325.91;5094471;28;20440;-76
2022/01/10 09:17:07;;;;;;;0.40;0.30;;;;;;;5.84;100.00;101334.75;5094142;28;20933;-75
2022/01/10 09:19:33;;;;;;;0.40;0.20;;;;;;;5.87;100.00;101341.50;5094388;28;20448;-74
2022/01/10 09:22:00;;;;;;;0.40;0.27;;;;;;;5.85;100.00;101343.66;5094292;28;20828;-73
2022/01/10 09:24:27;;;;;;;0.40;0.30;;;;;;;5.82;100.00;101340.38;5094010;28;20934;-73
2022/01/10 09:26:56;;;;;;;0.40;0.20;;;;;;;5.83;100.00;101350.06;5094283;28;20444;-74
2022/01/10 09:29:23;;;;;;;0.40;0.20;;;;;;;5.82;100.00;101350.31;5093947;28;21049;-73
2022/01/10 09:31:50;;;;;;;0.40;0.30;;;;;;;5.86;100.00;101351.44;5094138;28;20441;-76
2022/01/10 09:34:16;;;;;;;0.40;0.30;;;;;;;5.89;100.00;101350.13;5094179;28;20493;-77
2022/01/10 09:36:43;;;;;;;0.40;0.30;;;;;;;5.91;100.00;101364.94;5094116;28;20443;-75
2022/01/10 09:39:13;;;;;;;0.40;0.30;;;;;;;5.95;100.00;101378.75;5094043;28;20441;-73
2022/01/10 09:41:39;;;;;;;0.40;0.20;;;;;;;5.92;100.00;101373.84;5093909;28;20433;-73
2022/01/10 09:44:07;;;;;;;0.40;0.30;;;;;;;5.94;100.00;101369.06;5093860;28;20484;-73
2022/01/10 09:46:35;;;;;;;0.40;0.30;;;;;;;5.95;100.00;101378.75;5093968;28;20462;-76
2022/01/10 09:49:04;;;;;;;0.40;0.20;;;;;;;5.94;100.00;101380.63;5093942;28;20448;-76
2022/01/10 09:51:32;;;;;;;0.40;0.30;;;;;;;6.00;100.00;101386.88;5093491;28;20470;-74
2022/01/10 09:54:00;;;;;;;0.40;0.20;;;;;;;6.01;100.00;101397.34;5093811;28;20513;-77
2022/01/10 09:56:28;;;;;;;0.40;0.30;;;;;;;6.03;100.00;101397.13;5093870;28;20448;-77
2022/01/10 09:58:55;;;;;;;0.40;0.20;;;;;;;6.01;100.00;101401.94;5093664;28;20452;-77
2022/01/10 10:01:25;;;;;;;1.90;1.80;;;;;;;6.00;100.00;101417.25;5093358;28;20942;-77
2022/01/10 10:03:53;;;;;;;0.40;0.30;;;;;;;6.00;100.00;101411.06;5093134;28;20488;-77
2022/01/10 10:06:20;;;;;;;0.40;0.30;;;;;;;6.00;100.00;101419.94;5093641;28;20449;-77
2022/01/10 10:08:47;;;;;;;0.40;0.30;;;;;;;6.02;100.00;101430.44;5093603;28;20865;-77
2022/01/10 10:11:16;;;;;;;0.40;0.20;;;;;;;6.02;100.00;101425.91;5093715;28;20450;-77
2022/01/10 10:13:44;;;;;;;0.40;0.30;;;;;;;6.03;100.00;101432.09;5093658;28;21011;-77
2022/01/10 10:16:14;;;;;;;0.40;0.20;;;;;;;5.97;100.00;101428.50;5093290;28;20464;-76
2022/01/10 10:18:43;;;;;;;0.50;0.40;;;;;;;5.91;100.00;101442.91;5094006;28;20416;-76
2022/01/10 10:21:14;;;;;;;0.40;0.23;;;;;;;5.91;100.00;101450.16;5093448;28;20448;-77
2022/01/10 10:23:46;;;;;;;1.80;1.70;;;;;;;5.93;100.00;101453.44;5092927;28;20853;-77
2022/01/10 10:26:15;;;;;;;0.40;0.20;;;;;;;5.92;100.00;101460.69;5093091;28;20989;-77
2022/01/10 10:28:41;;;;;;;0.40;0.30;;;;;;;5.96;100.00;101458.34;5093413;28;20459;-77
2022/01/10 10:31:08;;;;;;;0.40;0.30;;;;;;;6.01;100.00;101466.47;5094145;28;20447;-77
2022/01/10 10:33:34;;;;;;;0.40;0.20;;;;;;;5.99;100.00;101468.59;5093939;28;20468;-77
2022/01/10 10:36:08;;;;;;;0.40;0.30;;;;;;;5.97;100.00;101473.41;5093785;28;20447;-77
2022/01/10 10:38:34;;;;;;;0.50;0.30;;;;;;;5.99;100.00;101474.78;5093687;28;20472;-77
2022/01/10 10:41:02;;;;;;;0.40;0.30;;;;;;;5.92;100.00;101476.84;5094667;28;20882;-78
2022/01/10 10:43:31;;;;;;;0.40;0.23;;;;;;;5.88;100.00;101470.28;5094363;28;21012;-78
2022/01/10 10:46:00;;;;;;;0.40;0.20;;;;;;;5.88;100.00;101489.09;5094955;28;20467;-78
2022/01/10 10:48:28;;;;;;;0.40;0.20;;;;;;;5.90;100.00;101486.19;5094917;28;20808;-78
2022/01/10 10:50:59;;;;;;;0.40;0.30;;;;;;;5.90;100.00;101497.75;5098272;28;20444;-77
2022/01/10 10:53:29;;;;;;;2.20;2.10;;;;;;;5.92;100.00;101495.66;5103711;28;20464;-78
2022/01/10 10:55:58;;;;;;;0.40;0.20;;;;;;;5.92;100.00;101492.16;5097146;28;20448;-77
2022/01/10 10:58:26;;;;;;;0.40;0.20;;;;;;;5.92;100.00;101501.03;5093275;28;20444;-77
2022/01/10 11:00:54;;;;;;;0.40;0.30;;;;;;;5.99;100.00;101511.63;5093061;28;20444;-77
2022/01/10 11:03:21;;;;;;;0.40;0.30;;;;;;;6.02;100.00;101506.56;5092910;28;20503;-77
2022/01/10 11:05:49;;;;;;;0.40;0.30;;;;;;;6.06;100.00;101505.03;5093306;28;20444;-77
2022/01/10 11:08:15;;;;;;;0.40;0.30;;;;;;;6.08;100.00;101507.44;5093423;28;20448;-77
2022/01/10 11:10:43;;;;;;;0.40;0.30;;;;;;;6.12;100.00;101510.47;5093361;28;20728;-78
2022/01/10 11:13:12;;;;;;;0.40;0.30;;;;;;;6.17;100.00;101513.22;5093079;28;20463;-77
2022/01/10 11:15:39;;;;;;;0.40;0.30;;;;;;;6.16;100.00;101517.78;5093436;28;21013;-77
2022/01/10 11:18:08;;;;;;;0.40;0.30;;;;;;;6.15;100.00;101520.72;5092829;28;20453;-77
2022/01/10 11:20:42;;;;;;;0.40;0.30;;;;;;;6.10;100.00;101529.53;5092867;28;20523;-77
2022/01/10 11:23:09;;;;;;;0.40;0.30;;;;;;;6.06;100.00;101528.38;5093068;28;20483;-77
2022/01/10 11:25:39;;;;;;;0.40;0.20;;;;;;;6.10;100.00;101529.53;5092935;28;20443;-77
2022/01/10 11:28:10;;;;;;;0.40;0.27;;;;;;;6.15;100.00;101532.28;5095338;28;20440;-76
2022/01/10 11:30:38;;;;;;;0.40;0.30;;;;;;;6.19;100.00;101533.41;5096555;28;20436;-76